CheckWX is a tool to help pilots better visualize weather data.  It is not intended as a substitute for an official pre-flight weather briefing.

02:18:10 UTC

KTTN TAF
Trenton Mercer Airport
Trenton, New Jersey, USA
KTTN 262320Z 2700/2724 27008KT P6SM BKN050 FM270200 25004KT P6SM FEW040 FEW100 FM270800 25005KT P6SM BKN110 FM271600 28010G17KT P6SM SCT030 OVC050 FM272200 29007KT P6SM BKN050

Jan-27@
00:00 UTC

Jan-27 @ 00:00 UTC

Jan-27@
02:00 UTC

Jan-27 @ 02:00 UTC

KTTN 262320Z 2700/2724 27008KT P6SM BKN050

Expired

Wind
  • 270° at 8 KTS
Cloud Levels
  • Broken at 5,000' AGL

Jan-27@
02:00 UTC

Jan-27 @ 02:00 UTC

Jan-27@
08:00 UTC

Jan-27 @ 08:00 UTC

FM270200 25004KT P6SM FEW040 FEW100

From

From Standard forecast or significant change

Wind
  • 250° at 4 KTS
Cloud Levels
  • Few at 4,000' AGL
  • Few at 10,000' AGL

Jan-27@
08:00 UTC

Jan-27 @ 08:00 UTC

Jan-27@
16:00 UTC

Jan-27 @ 16:00 UTC

FM270800 25005KT P6SM BKN110

From

From Standard forecast or significant change

Wind
  • 250° at 5 KTS
Cloud Levels
  • Broken at 11,000' AGL

Jan-27@
16:00 UTC

Jan-27 @ 16:00 UTC

Jan-27@
22:00 UTC

Jan-27 @ 22:00 UTC

FM271600 28010G17KT P6SM SCT030 OVC050

From

From Standard forecast or significant change

Wind
  • 280° at 10 KTS
  • {Gusting to 17 KTS
Cloud Levels
  • Scattered at 3,000' AGL
  • Overcast at 5,000' AGL

Jan-27@
22:00 UTC

Jan-27 @ 22:00 UTC

Jan-28@
00:00 UTC

Jan-28 @ 00:00 UTC

FM272200 29007KT P6SM BKN050

From

From Standard forecast or significant change

Wind
  • 290° at 7 KTS
Cloud Levels
  • Broken at 5,000' AGL